createdAt,value
2019-03-12T05:03:50.819Z,0.514832
2019-03-12T05:07:25.964Z,0.534973
2019-03-12T05:10:53.844Z,0.484619
2019-03-12T05:14:21.735Z,0.555115
2019-03-12T05:17:50.626Z,0.555115
2019-03-12T05:21:18.512Z,0.585327
2019-03-12T05:24:46.412Z,0.534973
2019-03-12T05:28:14.314Z,0.514832
2019-03-12T05:31:42.205Z,0.514832
2019-03-12T05:35:10.091Z,0.514832
2019-03-12T05:38:37.993Z,0.514832
2019-03-12T05:42:05.883Z,0.504761
2019-03-12T05:45:33.777Z,0.514832
2019-03-12T05:49:02.669Z,0.474548
2019-03-12T05:52:30.569Z,0.474548
2019-03-12T05:55:58.458Z,0.484619
2019-03-12T05:59:26.355Z,0.504761
2019-03-12T06:02:54.268Z,0.514832
2019-03-12T06:06:22.151Z,0.534973
2019-03-12T06:09:50.050Z,0.545044
2019-03-12T06:13:17.948Z,0.555115
2019-03-12T06:16:45.850Z,0.61554
2019-03-12T06:20:13.730Z,0.655823
2019-03-12T06:23:41.649Z,0.696106
2019-03-12T06:27:09.564Z,0.716248
2019-03-12T06:30:40.415Z,0.756531
2019-03-12T06:34:08.318Z,0.736389
2019-03-12T06:37:36.226Z,0.776672
2019-03-12T06:41:04.155Z,0.837097
2019-03-12T06:44:32.051Z,0.86731
2019-03-12T06:47:59.945Z,0.86731
2019-03-12T06:51:28.023Z,0.937805
2019-03-12T06:54:55.918Z,0.937805
2019-03-12T06:58:23.819Z,1.018372
2019-03-12T07:01:51.746Z,1.078796
2019-03-12T07:05:19.641Z,1.098938
2019-03-12T07:08:47.541Z,1.169434
2019-03-12T07:12:15.442Z,1.260071
2019-03-12T07:15:44.158Z,1.340637
2019-03-12T07:19:12.085Z,1.390991
2019-03-12T07:22:39.987Z,1.461487
2019-03-12T07:26:07.961Z,1.562195
2019-03-12T07:29:35.862Z,1.642761
2019-03-12T07:33:04.763Z,1.713257
2019-03-12T07:36:32.680Z,1.803894
2019-03-12T07:40:00.562Z,1.914673
2019-03-12T07:43:28.466Z,2.025452
2019-03-12T07:46:56.385Z,2.166443
2019-03-12T07:50:24.262Z,2.347717
2019-03-12T07:53:59.120Z,2.478638
2019-03-12T07:57:24.075Z,2.609558
2019-03-12T08:00:52.946Z,2.710266
2019-03-12T08:04:20.856Z,2.710266
2019-03-12T08:07:48.831Z,2.750549
2019-03-12T08:11:16.751Z,2.730408
2019-03-12T08:14:44.689Z,2.710266
2019-03-12T08:18:12.588Z,2.780762
2019-03-12T08:21:40.468Z,2.790833
2019-03-12T08:25:10.363Z,2.931824
2019-03-12T08:28:38.268Z,2.710266
2019-03-12T08:32:06.170Z,2.599487
2019-03-12T08:35:34.100Z,2.810974
2019-03-12T08:39:01.998Z,2.931824
2019-03-12T08:42:29.953Z,2.911682
2019-03-12T08:45:57.875Z,3.002319
2019-03-12T08:49:25.779Z,3.274231
2019-03-12T08:52:55.653Z,3.173523
2019-03-12T08:56:23.541Z,3.254089
2019-03-12T08:59:52.443Z,3.304443
2019-03-12T09:03:20.335Z,3.26416
2019-03-12T09:06:48.244Z,3.294373
2019-03-12T09:10:16.133Z,3.374939
2019-03-12T09:13:44.129Z,3.536072
2019-03-12T09:17:13.031Z,3.586426
2019-03-12T09:20:40.914Z,3.757629
2019-03-12T09:24:08.813Z,3.848267
2019-03-12T09:27:36.720Z,3.918762
2019-03-12T09:31:04.600Z,4.029541
2019-03-12T09:34:32.499Z,4.059753
2019-03-12T09:38:00.422Z,4.089966
2019-03-12T09:41:28.298Z,4.230957
2019-03-12T09:44:56.196Z,4.210815
2019-03-12T09:48:24.097Z,4.39209
2019-03-12T09:51:51.980Z,4.613647
2019-03-12T09:55:19.919Z,4.825134
2019-03-12T09:58:47.824Z,4.905701
2019-03-12T10:02:15.735Z,5.02655
2019-03-12T10:05:43.631Z,5.177612
2019-03-12T10:09:12.509Z,5.358887
2019-03-12T10:12:40.403Z,5.368958
2019-03-12T10:16:09.279Z,5.65094
2019-03-12T10:19:37.182Z,5.761719
2019-03-12T10:23:05.084Z,5.580444
2019-03-12T10:26:32.963Z,5.479736
2019-03-12T10:30:00.865Z,5.540161
2019-03-12T10:33:28.770Z,5.550232
2019-03-12T10:36:56.650Z,5.721436
2019-03-12T10:40:30.492Z,5.691223
2019-03-12T10:43:58.391Z,5.590515
2019-03-12T10:47:27.263Z,5.701294
2019-03-12T10:50:55.183Z,5.751648
2019-03-12T10:54:23.083Z,5.90271
2019-03-12T10:57:51.954Z,6.345825
2019-03-12T11:01:19.857Z,6.235046
2019-03-12T11:04:47.770Z,6.517029
2019-03-12T11:08:22.702Z,6.889648
2019-03-12T11:11:50.587Z,8.017578
2019-03-12T11:15:18.484Z,7.806091
2019-03-12T11:18:46.407Z,8.370056
2019-03-12T11:22:14.282Z,9.367065
2019-03-12T11:25:43.177Z,9.447632
2019-03-12T11:29:11.078Z,9.850464
2019-03-12T11:32:38.967Z,9.981384
2019-03-12T11:36:06.865Z,9.286499
2019-03-12T11:39:34.764Z,8.591614
2019-03-12T11:43:02.707Z,9.29657
2019-03-12T11:46:41.314Z,9.367065
2019-03-12T11:50:05.380Z,9.497986
2019-03-12T11:53:33.251Z,9.80011
2019-03-12T11:57:01.175Z,10.213013
2019-03-12T12:00:29.207Z,10.605774
2019-03-12T12:03:56.970Z,11.481934
2019-03-12T12:07:24.854Z,11.109314
2019-03-12T12:10:53.750Z,10.93811
2019-03-12T12:14:22.642Z,10.343933
2019-03-12T12:17:50.559Z,10.384216
2019-03-12T12:21:18.464Z,10.535278
2019-03-12T12:24:46.384Z,10.233154
2019-03-12T12:28:14.298Z,9.870605
2019-03-12T12:31:42.205Z,9.628906
2019-03-12T12:35:12.086Z,9.54834
2019-03-12T12:38:39.988Z,9.326782
2019-03-12T12:42:07.911Z,9.216003
2019-03-12T12:45:35.926Z,9.014587
2019-03-12T12:49:03.903Z,9.075012
2019-03-12T12:52:31.878Z,9.256287
2019-03-12T12:55:59.755Z,9.155579
2019-03-12T12:59:27.654Z,9.216003
2019-03-12T13:02:56.550Z,9.256287
2019-03-12T13:06:25.440Z,9.216003
2019-03-12T13:09:53.350Z,9.155579
2019-03-12T13:13:21.251Z,9.17572
2019-03-12T13:16:49.143Z,9.17572
2019-03-12T13:20:17.050Z,9.0448
2019-03-12T13:23:46.930Z,9.014587
2019-03-12T13:27:14.835Z,8.863525
2019-03-12T13:30:42.750Z,8.712463
2019-03-12T13:34:10.657Z,8.631897
2019-03-12T13:37:38.567Z,8.500977
2019-03-12T13:41:07.504Z,8.370056
2019-03-12T13:44:35.437Z,8.16864
2019-03-12T13:48:03.479Z,8.088074
2019-03-12T13:51:31.314Z,8.088074
2019-03-12T13:54:59.265Z,8.017578
2019-03-12T13:58:28.175Z,7.977295
2019-03-12T14:01:56.056Z,7.977295
2019-03-12T14:05:23.955Z,7.977295
2019-03-12T14:08:51.859Z,7.987366
2019-03-12T14:12:19.746Z,8.138428
2019-03-12T14:15:47.655Z,8.118286
2019-03-12T14:19:16.535Z,8.138428
2019-03-12T14:22:45.419Z,8.16864
2019-03-12T14:26:14.307Z,8.138428
2019-03-12T14:29:42.205Z,8.057861
2019-03-12T14:33:10.117Z,8.118286
2019-03-12T14:36:38.027Z,8.16864
2019-03-12T14:40:05.950Z,8.16864
2019-03-12T14:43:33.989Z,8.138428
2019-03-12T14:47:01.925Z,8.098145
2019-03-12T14:50:31.908Z,7.957153
2019-03-12T14:53:59.849Z,7.957153
2019-03-12T14:57:28.816Z,7.856445
2019-03-12T15:00:56.734Z,7.655029
2019-03-12T15:04:24.627Z,7.503967
2019-03-12T15:07:52.677Z,7.473755
2019-03-12T15:11:20.537Z,7.443542
2019-03-12T15:14:48.485Z,7.403259
2019-03-12T15:18:16.547Z,7.393188
2019-03-12T15:21:44.453Z,7.262268
2019-03-12T15:25:12.332Z,7.151489
2019-03-12T15:28:40.243Z,7.080994
2019-03-12T15:32:08.146Z,7.03064
2019-03-12T15:35:36.033Z,6.929932
2019-03-12T15:39:03.932Z,6.889648
2019-03-12T15:42:31.832Z,6.879578
2019-03-12T15:46:00.549Z,6.90979
2019-03-12T15:49:29.446Z,6.859436
2019-03-12T15:53:01.330Z,6.78894
2019-03-12T15:56:29.227Z,6.748657
2019-03-12T15:59:57.122Z,6.708374
2019-03-12T16:03:26.021Z,6.678162
2019-03-12T16:07:01.028Z,6.647949
2019-03-12T16:10:25.774Z,6.668091
2019-03-12T16:13:53.677Z,6.607666
2019-03-12T16:17:22.578Z,6.597595
2019-03-12T16:20:51.469Z,6.496887
2019-03-12T16:24:19.420Z,6.426392
2019-03-12T16:27:47.318Z,6.396179
2019-03-12T16:31:15.224Z,6.27533
2019-03-12T16:34:43.102Z,6.214905
2019-03-12T16:38:11.018Z,6.134338
2019-03-12T16:41:38.918Z,6.083984
2019-03-12T16:45:06.796Z,6.02356
2019-03-12T16:48:34.692Z,5.932922
2019-03-12T16:52:03.576Z,5.932922
2019-03-12T16:55:31.456Z,5.852356
2019-03-12T16:58:59.353Z,5.77179
2019-03-12T17:02:29.239Z,5.731506
2019-03-12T17:05:57.146Z,5.721436
2019-03-12T17:09:32.442Z,5.721436
2019-03-12T17:13:00.342Z,5.701294
2019-03-12T17:16:28.234Z,5.691223
2019-03-12T17:19:57.095Z,5.721436
2019-03-12T17:23:24.991Z,5.721436
2019-03-12T17:26:52.954Z,5.751648
2019-03-12T17:30:20.864Z,5.751648
2019-03-12T17:33:49.364Z,5.791931
2019-03-12T17:37:17.255Z,5.791931
2019-03-12T17:40:45.157Z,5.791931
2019-03-12T17:44:13.035Z,5.802002
2019-03-12T17:47:40.921Z,5.791931
2019-03-12T17:51:08.824Z,5.802002
2019-03-12T17:54:36.830Z,5.751648
2019-03-12T17:58:04.720Z,5.77179
2019-03-12T18:01:33.607Z,5.77179
2019-03-12T18:05:01.499Z,5.791931
2019-03-12T18:08:29.385Z,5.802002
2019-03-12T18:11:57.300Z,5.822144
2019-03-12T18:15:25.197Z,5.872498
2019-03-12T18:18:53.070Z,5.912781
2019-03-12T18:22:25.451Z,5.942993
2019-03-12T18:25:53.366Z,5.932922
2019-03-12T18:29:21.302Z,5.932922
2019-03-12T18:32:50.096Z,5.932922
2019-03-12T18:36:21.087Z,5.932922
2019-03-12T18:39:49.043Z,5.973206
2019-03-12T18:43:16.936Z,5.983276
2019-03-12T18:46:44.909Z,6.053772
2019-03-12T18:50:12.847Z,6.03363
2019-03-12T18:53:40.745Z,6.063843
2019-03-12T18:57:08.714Z,6.094055
2019-03-12T19:00:36.674Z,6.083984
2019-03-12T19:04:04.566Z,6.094055
2019-03-12T19:07:35.886Z,6.134338
2019-03-12T19:11:03.890Z,6.164551
2019-03-12T19:14:31.773Z,6.214905
2019-03-12T19:17:59.688Z,6.295471
2019-03-12T19:21:27.668Z,6.27533
2019-03-12T19:24:55.557Z,6.27533
2019-03-12T19:28:23.454Z,6.305542
2019-03-12T19:31:51.363Z,6.305542
2019-03-12T19:35:19.257Z,6.295471
2019-03-12T19:38:47.171Z,6.245117
2019-03-12T19:42:15.074Z,6.164551
2019-03-12T19:45:44.050Z,6.134338
2019-03-12T19:49:11.945Z,6.114197
2019-03-12T19:52:39.849Z,6.124268
2019-03-12T19:56:08.726Z,6.083984
2019-03-12T19:59:36.708Z,6.094055
2019-03-12T20:03:10.525Z,6.083984
2019-03-12T20:06:37.667Z,6.114197
2019-03-12T20:10:05.467Z,6.063843
2019-03-12T20:13:33.378Z,6.094055
2019-03-12T20:17:08.822Z,6.114197
2019-03-12T20:20:33.139Z,6.124268
2019-03-12T20:24:01.054Z,6.134338
2019-03-12T20:27:33.419Z,6.15448
2019-03-12T20:31:02.341Z,6.15448
2019-03-12T20:34:30.797Z,6.214905
2019-03-12T20:37:59.696Z,6.214905
2019-03-12T20:41:27.641Z,6.235046
2019-03-12T20:44:55.554Z,6.245117
2019-03-12T20:48:23.494Z,6.245117
2019-03-12T20:51:51.405Z,6.265259
2019-03-12T20:55:19.343Z,6.27533
2019-03-12T20:58:47.354Z,6.295471
2019-03-12T21:02:15.335Z,6.295471
2019-03-12T21:05:44.228Z,6.365967
2019-03-12T21:09:12.243Z,6.396179
2019-03-12T21:12:41.142Z,6.376038
2019-03-12T21:16:09.044Z,6.466675
2019-03-12T21:19:37.946Z,6.466675
2019-03-12T21:23:06.014Z,6.426392
2019-03-12T21:26:34.892Z,6.376038
2019-03-12T21:30:02.927Z,6.315613
2019-03-12T21:33:32.581Z,6.305542
2019-03-12T21:37:00.486Z,6.265259
2019-03-12T21:40:28.604Z,6.235046
2019-03-12T21:43:56.428Z,6.245117
2019-03-12T21:47:24.451Z,6.184692
2019-03-12T21:50:53.078Z,6.164551
2019-03-12T21:54:21.000Z,6.164551
2019-03-12T21:57:48.893Z,6.184692
2019-03-12T22:01:17.492Z,6.15448
2019-03-12T22:04:45.377Z,6.15448
2019-03-12T22:08:13.281Z,6.194763
2019-03-12T22:11:42.146Z,6.245117
2019-03-12T22:15:10.041Z,6.235046
2019-03-12T22:18:37.944Z,6.184692
2019-03-12T22:22:05.828Z,6.134338
2019-03-12T22:25:34.744Z,6.124268
2019-03-12T22:29:02.624Z,6.083984
2019-03-12T22:32:30.501Z,6.114197
2019-03-12T22:35:58.410Z,6.094055
2019-03-12T22:39:26.291Z,6.063843
2019-03-12T22:42:55.194Z,6.053772
2019-03-12T22:46:23.085Z,6.094055
2019-03-12T22:49:50.965Z,6.114197
2019-03-12T22:53:18.863Z,6.124268
2019-03-12T22:56:47.758Z,6.164551
